sensor_id;sensor_type;location;lat;lon;timestamp;pressure;altitude;pressure_sealevel;temperature;humidity
60087;BME280;45960;53.630;55.972;2023-01-31T00:00:43;100564.78;;;-9.57;65.19
60087;BME280;45960;53.630;55.972;2023-01-31T00:01:44;100557.91;;;-9.55;64.88
60087;BME280;45960;53.630;55.972;2023-01-31T00:02:45;100553.63;;;-9.53;65.03
60087;BME280;45960;53.630;55.972;2023-01-31T00:03:47;100554.56;;;-9.51;64.85
60087;BME280;45960;53.630;55.972;2023-01-31T00:04:49;100555.31;;;-9.57;64.91
60087;BME280;45960;53.630;55.972;2023-01-31T00:05:50;100556.03;;;-9.62;64.83
60087;BME280;45960;53.630;55.972;2023-01-31T00:06:51;100551.56;;;-9.70;64.95
60087;BME280;45960;53.630;55.972;2023-01-31T00:07:53;100548.94;;;-9.73;65.03
60087;BME280;45960;53.630;55.972;2023-01-31T00:08:56;100545.53;;;-9.72;65.10
60087;BME280;45960;53.630;55.972;2023-01-31T00:09:57;100552.53;;;-9.64;65.07
60087;BME280;45960;53.630;55.972;2023-01-31T00:10:58;100550.81;;;-9.65;64.90
60087;BME280;45960;53.630;55.972;2023-01-31T00:12:00;100549.09;;;-9.63;65.04
60087;BME280;45960;53.630;55.972;2023-01-31T00:13:00;100543.13;;;-9.61;64.79
60087;BME280;45960;53.630;55.972;2023-01-31T00:14:03;100541.47;;;-9.59;64.89
60087;BME280;45960;53.630;55.972;2023-01-31T00:15:05;100551.00;;;-9.56;64.83
60087;BME280;45960;53.630;55.972;2023-01-31T00:16:07;100544.16;;;-9.54;64.81
60087;BME280;45960;53.630;55.972;2023-01-31T00:17:08;100544.16;;;-9.54;64.40
60087;BME280;45960;53.630;55.972;2023-01-31T00:18:09;100544.03;;;-9.60;64.64
60087;BME280;45960;53.630;55.972;2023-01-31T00:19:10;100543.94;;;-9.63;64.80
60087;BME280;45960;53.630;55.972;2023-01-31T00:20:11;100550.81;;;-9.64;64.74
60087;BME280;45960;53.630;55.972;2023-01-31T00:21:17;100553.41;;;-9.65;64.84
60087;BME280;45960;53.630;55.972;2023-01-31T00:22:19;100549.03;;;-9.66;64.97
60087;BME280;45960;53.630;55.972;2023-01-31T00:23:20;100543.94;;;-9.63;65.04
60087;BME280;45960;53.630;55.972;2023-01-31T00:24:21;100542.19;;;-9.64;64.94
60087;BME280;45960;53.630;55.972;2023-01-31T00:25:22;100546.41;;;-9.70;65.01
60087;BME280;45960;53.630;55.972;2023-01-31T00:27:25;100545.53;;;-9.72;65.15
60087;BME280;45960;53.630;55.972;2023-01-31T00:28:27;100536.06;;;-9.70;64.85
60087;BME280;45960;53.630;55.972;2023-01-31T00:29:27;100530.94;;;-9.66;64.96
60087;BME280;45960;53.630;55.972;2023-01-31T00:30:29;100532.66;;;-9.67;64.95
60087;BME280;45960;53.630;55.972;2023-01-31T00:31:31;100540.47;;;-9.65;64.83
60087;BME280;45960;53.630;55.972;2023-01-31T00:32:33;100538.63;;;-9.70;64.72
60087;BME280;45960;53.630;55.972;2023-01-31T00:33:34;100539.50;;;-9.71;64.93
60087;BME280;45960;53.630;55.972;2023-01-31T00:34:35;100536.94;;;-9.69;65.15
60087;BME280;45960;53.630;55.972;2023-01-31T00:35:38;100536.91;;;-9.71;65.03
60087;BME280;45960;53.630;55.972;2023-01-31T00:36:40;100533.47;;;-9.70;65.21
60087;BME280;45960;53.630;55.972;2023-01-31T00:37:43;100540.47;;;-9.65;64.88
60087;BME280;45960;53.630;55.972;2023-01-31T00:38:47;100544.69;;;-9.69;65.15
60087;BME280;45960;53.630;55.972;2023-01-31T00:39:48;100543.00;;;-9.69;64.92
60087;BME280;45960;53.630;55.972;2023-01-31T00:40:54;100549.78;;;-9.72;65.08
60087;BME280;45960;53.630;55.972;2023-01-31T00:41:55;100548.16;;;-9.69;65.21
60087;BME280;45960;53.630;55.972;2023-01-31T00:42:56;100552.50;;;-9.68;64.99
60087;BME280;45960;53.630;55.972;2023-01-31T00:43:57;100548.13;;;-9.70;65.02
60087;BME280;45960;53.630;55.972;2023-01-31T00:44:58;100547.19;;;-9.74;64.95
60087;BME280;45960;53.630;55.972;2023-01-31T00:45:59;100565.34;;;-9.71;65.18
60087;BME280;45960;53.630;55.972;2023-01-31T00:47:01;100553.28;;;-9.70;64.97
60087;BME280;45960;53.630;55.972;2023-01-31T00:48:02;100552.50;;;-9.68;65.09
60087;BME280;45960;53.630;55.972;2023-01-31T00:49:03;100555.88;;;-9.70;65.03
60087;BME280;45960;53.630;55.972;2023-01-31T00:50:04;100552.50;;;-9.68;65.28
60087;BME280;45960;53.630;55.972;2023-01-31T00:51:07;100557.81;;;-9.60;65.23
60087;BME280;45960;53.630;55.972;2023-01-31T00:52:08;100554.44;;;-9.56;64.86
60087;BME280;45960;53.630;55.972;2023-01-31T00:53:09;100557.03;;;-9.56;64.75
60087;BME280;45960;53.630;55.972;2023-01-31T00:54:10;100555.31;;;-9.55;64.76
60087;BME280;45960;53.630;55.972;2023-01-31T00:55:11;100559.53;;;-9.60;64.98
60087;BME280;45960;53.630;55.972;2023-01-31T00:56:16;100558.72;;;-9.58;64.74
60087;BME280;45960;53.630;55.972;2023-01-31T00:57:17;100564.72;;;-9.60;64.97
60087;BME280;45960;53.630;55.972;2023-01-31T00:58:19;100566.38;;;-9.62;65.02
60087;BME280;45960;53.630;55.972;2023-01-31T00:59:20;100571.50;;;-9.65;65.01
60087;BME280;45960;53.630;55.972;2023-01-31T01:00:21;100560.34;;;-9.63;65.01
60087;BME280;45960;53.630;55.972;2023-01-31T01:01:27;100560.38;;;-9.61;65.05
60087;BME280;45960;53.630;55.972;2023-01-31T01:02:28;100569.03;;;-9.59;65.05
60087;BME280;45960;53.630;55.972;2023-01-31T01:03:29;100560.47;;;-9.55;64.97
60087;BME280;45960;53.630;55.972;2023-01-31T01:04:30;100554.44;;;-9.57;64.66
60087;BME280;45960;53.630;55.972;2023-01-31T01:05:32;100560.38;;;-9.61;64.80
60087;BME280;45960;53.630;55.972;2023-01-31T01:06:33;100559.38;;;-9.66;64.91
60087;BME280;45960;53.630;55.972;2023-01-31T01:07:34;100562.88;;;-9.66;64.99
60087;BME280;45960;53.630;55.972;2023-01-31T01:08:37;100565.53;;;-9.63;64.92
60087;BME280;45960;53.630;55.972;2023-01-31T01:09:39;100562.88;;;-9.64;65.10
60087;BME280;45960;53.630;55.972;2023-01-31T01:10:40;100554.22;;;-9.66;64.98
60087;BME280;45960;53.630;55.972;2023-01-31T01:11:41;100565.38;;;-9.69;64.66
60087;BME280;45960;53.630;55.972;2023-01-31T01:12:43;100566.28;;;-9.69;64.85
60087;BME280;45960;53.630;55.972;2023-01-31T01:13:48;100574.84;;;-9.70;64.99
60087;BME280;45960;53.630;55.972;2023-01-31T01:14:49;100554.16;;;-9.70;64.82
60087;BME280;45960;53.630;55.972;2023-01-31T01:15:50;100559.34;;;-9.70;64.97
60087;BME280;45960;53.630;55.972;2023-01-31T01:16:52;100560.13;;;-9.74;64.99
60087;BME280;45960;53.630;55.972;2023-01-31T01:17:54;100560.94;;;-9.75;64.78
60087;BME280;45960;53.630;55.972;2023-01-31T01:18:55;100550.59;;;-9.75;64.90
60087;BME280;45960;53.630;55.972;2023-01-31T01:19:57;100567.00;;;-9.74;64.83
60087;BME280;45960;53.630;55.972;2023-01-31T01:21:09;100567.88;;;-9.74;64.80
60087;BME280;45960;53.630;55.972;2023-01-31T01:22:10;100562.72;;;-9.74;64.87
60087;BME280;45960;53.630;55.972;2023-01-31T01:23:15;100566.13;;;-9.75;64.71
60087;BME280;45960;53.630;55.972;2023-01-31T01:24:17;100561.78;;;-9.76;64.87
60087;BME280;45960;53.630;55.972;2023-01-31T01:25:19;100551.28;;;-9.83;65.00
60087;BME280;45960;53.630;55.972;2023-01-31T01:26:25;100562.59;;;-9.80;65.06
60087;BME280;45960;53.630;55.972;2023-01-31T01:27:27;100567.75;;;-9.80;65.14
60087;BME280;45960;53.630;55.972;2023-01-31T01:28:32;100560.88;;;-9.78;64.96
60087;BME280;45960;53.630;55.972;2023-01-31T01:29:34;100543.63;;;-9.79;64.91
60087;BME280;45960;53.630;55.972;2023-01-31T01:30:38;100544.38;;;-9.84;64.93
60087;BME280;45960;53.630;55.972;2023-01-31T01:31:40;100548.69;;;-9.85;65.11
60087;BME280;45960;53.630;55.972;2023-01-31T01:32:41;100540.00;;;-9.87;64.97
60087;BME280;45960;53.630;55.972;2023-01-31T01:33:43;100542.56;;;-9.88;64.90
60087;BME280;45960;53.630;55.972;2023-01-31T01:34:44;100542.47;;;-9.93;64.99
60087;BME280;45960;53.630;55.972;2023-01-31T01:35:47;100544.25;;;-9.91;64.96
60087;BME280;45960;53.630;55.972;2023-01-31T01:36:48;100548.44;;;-9.94;64.70
60087;BME280;45960;53.630;55.972;2023-01-31T01:37:49;100554.41;;;-9.98;64.91
60087;BME280;45960;53.630;55.972;2023-01-31T01:38:51;100556.06;;;-10.02;65.07
60087;BME280;45960;53.630;55.972;2023-01-31T01:39:53;100558.66;;;-10.02;65.13
60087;BME280;45960;53.630;55.972;2023-01-31T01:40:54;100560.44;;;-9.99;65.09
60087;BME280;45960;53.630;55.972;2023-01-31T01:41:56;100558.66;;;-10.00;64.94
60087;BME280;45960;53.630;55.972;2023-01-31T01:42:57;100551.75;;;-10.01;64.92
60087;BME280;45960;53.630;55.972;2023-01-31T01:43:59;100551.75;;;-10.01;64.90
60087;BME280;45960;53.630;55.972;2023-01-31T01:45:03;100563.84;;;-10.00;65.03
60087;BME280;45960;53.630;55.972;2023-01-31T01:46:04;100560.19;;;-10.08;64.91
60087;BME280;45960;53.630;55.972;2023-01-31T01:47:57;100558.47;;;-10.09;64.98
60087;BME280;45960;53.630;55.972;2023-01-31T01:48:32;100563.63;;;-10.09;65.08
60087;BME280;45960;53.630;55.972;2023-01-31T01:49:35;100545.47;;;-10.13;65.04
60087;BME280;45960;53.630;55.972;2023-01-31T01:50:41;100560.13;;;-10.11;65.15
60087;BME280;45960;53.630;55.972;2023-01-31T01:51:46;100560.19;;;-10.08;65.05
60087;BME280;45960;53.630;55.972;2023-01-31T01:53:56;100549.72;;;-10.15;65.10
60087;BME280;45960;53.630;55.972;2023-01-31T01:55:07;100553.22;;;-10.13;65.24
60087;BME280;45960;53.630;55.972;2023-01-31T01:56:25;100556.81;;;-10.07;65.12
60087;BME280;45960;53.630;55.972;2023-01-31T01:57:32;100552.44;;;-10.10;64.93
60087;BME280;45960;53.630;55.972;2023-01-31T01:59:05;100549.81;;;-10.11;64.84
60087;BME280;45960;53.630;55.972;2023-01-31T02:01:15;100548.06;;;-10.13;64.78
60087;BME280;45960;53.630;55.972;2023-01-31T02:02:20;100554.88;;;-10.16;64.82
60087;BME280;45960;53.630;55.972;2023-01-31T02:03:23;100552.13;;;-10.24;64.89
60087;BME280;45960;53.630;55.972;2023-01-31T02:04:29;100556.44;;;-10.23;64.99
60087;BME280;45960;53.630;55.972;2023-01-31T02:05:45;100549.59;;;-10.21;64.97
60087;BME280;45960;53.630;55.972;2023-01-31T02:06:46;100550.47;;;-10.20;65.10
60087;BME280;45960;53.630;55.972;2023-01-31T02:07:47;100553.91;;;-10.21;64.98
60087;BME280;45960;53.630;55.972;2023-01-31T02:08:49;100553.09;;;-10.19;65.01
60087;BME280;45960;53.630;55.972;2023-01-31T02:09:55;100551.50;;;-10.14;64.86
60087;BME280;45960;53.630;55.972;2023-01-31T02:12:06;100551.34;;;-10.20;64.73
60087;BME280;45960;53.630;55.972;2023-01-31T02:13:07;100550.31;;;-10.28;64.86
60087;BME280;45960;53.630;55.972;2023-01-31T02:14:09;100554.66;;;-10.27;64.93
60087;BME280;45960;53.630;55.972;2023-01-31T02:15:11;100548.56;;;-10.30;65.09
60087;BME280;45960;53.630;55.972;2023-01-31T02:16:12;100557.03;;;-10.36;65.29
60087;BME280;45960;53.630;55.972;2023-01-31T02:17:16;100547.66;;;-10.31;64.98
60087;BME280;45960;53.630;55.972;2023-01-31T02:18:19;100551.91;;;-10.34;65.06
60087;BME280;45960;53.630;55.972;2023-01-31T02:19:47;100547.59;;;-10.34;65.17
60087;BME280;45960;53.630;55.972;2023-01-31T02:22:36;100546.78;;;-10.33;65.15
60087;BME280;45960;53.630;55.972;2023-01-31T02:24:16;100558.72;;;-10.38;65.04
60087;BME280;45960;53.630;55.972;2023-01-31T02:27:17;100561.22;;;-10.41;64.78
60087;BME280;45960;53.630;55.972;2023-01-31T02:28:52;100568.78;;;-10.49;65.05
60087;BME280;45960;53.630;55.972;2023-01-31T02:30:20;100564.41;;;-10.51;64.83
60087;BME280;45960;53.630;55.972;2023-01-31T02:38:29;100548.56;;;-10.67;65.10
60087;BME280;45960;53.630;55.972;2023-01-31T02:41:15;100552.66;;;-10.75;65.28
60087;BME280;45960;53.630;55.972;2023-01-31T02:42:30;100555.22;;;-10.75;65.28
60087;BME280;45960;53.630;55.972;2023-01-31T02:43:53;100545.66;;;-10.79;65.33
60087;BME280;45960;53.630;55.972;2023-01-31T02:45:21;100556.09;;;-10.74;65.21
60087;BME280;45960;53.630;55.972;2023-01-31T02:46:47;100551.66;;;-10.80;65.38
60087;BME280;45960;53.630;55.972;2023-01-31T02:51:28;100542.84;;;-10.88;65.58
60087;BME280;45960;53.630;55.972;2023-01-31T02:53:41;100546.38;;;-10.85;65.33
60087;BME280;45960;53.630;55.972;2023-01-31T02:56:29;100541.94;;;-10.90;65.52
60087;BME280;45960;53.630;55.972;2023-01-31T02:57:32;100551.50;;;-10.86;65.45
60087;BME280;45960;53.630;55.972;2023-01-31T02:58:37;100553.16;;;-10.88;65.52
60087;BME280;45960;53.630;55.972;2023-01-31T02:59:40;100541.19;;;-10.86;65.72
60087;BME280;45960;53.630;55.972;2023-01-31T03:00:43;100547.28;;;-10.83;65.44
60087;BME280;45960;53.630;55.972;2023-01-31T03:01:53;100536.84;;;-10.87;65.52
60087;BME280;45960;53.630;55.972;2023-01-31T03:02:56;100535.94;;;-10.89;65.61
60087;BME280;45960;53.630;55.972;2023-01-31T03:04:06;100541.19;;;-10.86;65.69
60087;BME280;45960;53.630;55.972;2023-01-31T03:05:13;100529.03;;;-10.90;65.64
60087;BME280;45960;53.630;55.972;2023-01-31T03:07:28;100524.84;;;-10.85;65.54
60087;BME280;45960;53.630;55.972;2023-01-31T03:08:34;100529.03;;;-10.90;65.39
60087;BME280;45960;53.630;55.972;2023-01-31T03:10:59;100533.53;;;-10.83;65.57
60087;BME280;45960;53.630;55.972;2023-01-31T03:12:15;100541.25;;;-10.83;65.34
60087;BME280;45960;53.630;55.972;2023-01-31T03:14:44;100530.88;;;-10.86;65.50
60087;BME280;45960;53.630;55.972;2023-01-31T03:15:58;100546.41;;;-10.83;65.29
60087;BME280;45960;53.630;55.972;2023-01-31T03:18:46;100553.31;;;-10.82;65.08
60087;BME280;45960;53.630;55.972;2023-01-31T03:21:34;100547.06;;;-10.92;65.23
60087;BME280;45960;53.630;55.972;2023-01-31T03:22:42;100547.00;;;-10.95;65.27
60087;BME280;45960;53.630;55.972;2023-01-31T03:23:49;100554.75;;;-10.93;65.23
60087;BME280;45960;53.630;55.972;2023-01-31T03:24:52;100547.84;;;-10.94;65.25
60087;BME280;45960;53.630;55.972;2023-01-31T03:25:55;100551.22;;;-10.97;65.24
60087;BME280;45960;53.630;55.972;2023-01-31T03:26:59;100561.56;;;-10.95;65.32
60087;BME280;45960;53.630;55.972;2023-01-31T03:28:07;100558.09;;;-10.97;65.50
60087;BME280;45960;53.630;55.972;2023-01-31T03:29:14;100561.56;;;-10.95;65.40
60087;BME280;45960;53.630;55.972;2023-01-31T03:30:21;100571.00;;;-10.97;65.38
60087;BME280;45960;53.630;55.972;2023-01-31T03:31:41;100576.09;;;-11.00;65.28
60087;BME280;45960;53.630;55.972;2023-01-31T03:32:57;100569.16;;;-11.01;65.20
60087;BME280;45960;53.630;55.972;2023-01-31T03:34:03;100568.22;;;-11.05;65.14
60087;BME280;45960;53.630;55.972;2023-01-31T03:35:06;100574.16;;;-11.08;65.29
60087;BME280;45960;53.630;55.972;2023-01-31T03:36:19;100581.19;;;-11.02;65.40
60087;BME280;45960;53.630;55.972;2023-01-31T03:38:10;100581.91;;;-11.08;65.33
60087;BME280;45960;53.630;55.972;2023-01-31T03:41:21;100592.94;;;-11.12;65.30
60087;BME280;45960;53.630;55.972;2023-01-31T03:42:30;100595.66;;;-11.09;65.24
60087;BME280;45960;53.630;55.972;2023-01-31T03:44:19;100592.06;;;-11.14;65.06
60087;BME280;45960;53.630;55.972;2023-01-31T03:45:37;100596.38;;;-11.13;64.91
60087;BME280;45960;53.630;55.972;2023-01-31T03:46:49;100594.59;;;-11.15;64.80
60087;BME280;45960;53.630;55.972;2023-01-31T03:47:52;100594.50;;;-11.18;64.84
60087;BME280;45960;53.630;55.972;2023-01-31T03:48:55;100591.94;;;-11.18;64.89
60087;BME280;45960;53.630;55.972;2023-01-31T03:50:03;100599.53;;;-11.23;65.09
60087;BME280;45960;53.630;55.972;2023-01-31T03:51:08;100575.16;;;-11.34;65.11
60087;BME280;45960;53.630;55.972;2023-01-31T03:52:21;100596.06;;;-11.23;64.99
60087;BME280;45960;53.630;55.972;2023-01-31T03:54:00;100593.31;;;-11.31;64.95
60087;BME280;45960;53.630;55.972;2023-01-31T03:55:15;100594.19;;;-11.31;65.05
60087;BME280;45960;53.630;55.972;2023-01-31T03:56:20;100598.34;;;-11.34;65.22
60087;BME280;45960;53.630;55.972;2023-01-31T03:57:29;100598.34;;;-11.34;65.01
60087;BME280;45960;53.630;55.972;2023-01-31T03:58:37;100594.88;;;-11.36;65.25
60087;BME280;45960;53.630;55.972;2023-01-31T03:59:42;100600.84;;;-11.37;65.16
60087;BME280;45960;53.630;55.972;2023-01-31T04:00:46;100596.59;;;-11.37;65.32
60087;BME280;45960;53.630;55.972;2023-01-31T04:01:50;100598.34;;;-11.34;65.39
60087;BME280;45960;53.630;55.972;2023-01-31T04:03:00;100594.97;;;-11.33;65.29
60087;BME280;45960;53.630;55.972;2023-01-31T04:04:41;100594.97;;;-11.33;65.27
60087;BME280;45960;53.630;55.972;2023-01-31T04:05:45;100599.19;;;-11.35;65.17
60087;BME280;45960;53.630;55.972;2023-01-31T04:06:49;100596.63;;;-11.35;65.01
60087;BME280;45960;53.630;55.972;2023-01-31T04:07:50;100596.63;;;-11.35;65.14
60087;BME280;45960;53.630;55.972;2023-01-31T04:08:56;100607.84;;;-11.33;64.99
60087;BME280;45960;53.630;55.972;2023-01-31T04:09:58;100599.28;;;-11.32;64.96
60087;BME280;45960;53.630;55.972;2023-01-31T04:11:01;100605.28;;;-11.33;65.15
60087;BME280;45960;53.630;55.972;2023-01-31T04:12:03;100606.28;;;-11.28;64.87
60087;BME280;45960;53.630;55.972;2023-01-31T04:13:04;100607.09;;;-11.29;64.96
60087;BME280;45960;53.630;55.972;2023-01-31T04:14:06;100602.69;;;-11.33;64.74
60087;BME280;45960;53.630;55.972;2023-01-31T04:15:08;100607.09;;;-11.29;64.90
60087;BME280;45960;53.630;55.972;2023-01-31T04:16:11;100603.50;;;-11.34;64.88
60087;BME280;45960;53.630;55.972;2023-01-31T04:17:12;100614.66;;;-11.37;65.13
60087;BME280;45960;53.630;55.972;2023-01-31T04:18:13;100606.16;;;-11.33;64.93
60087;BME280;45960;53.630;55.972;2023-01-31T04:19:14;100612.97;;;-11.35;64.91
60087;BME280;45960;53.630;55.972;2023-01-31T04:20:15;100612.09;;;-11.35;65.02
60087;BME280;45960;53.630;55.972;2023-01-31T04:21:16;100609.44;;;-11.38;64.75
60087;BME280;45960;53.630;55.972;2023-01-31T04:22:17;100609.44;;;-11.38;64.98
60087;BME280;45960;53.630;55.972;2023-01-31T04:23:19;100615.44;;;-11.39;64.82
60087;BME280;45960;53.630;55.972;2023-01-31T04:24:20;100618.91;;;-11.37;65.03
60087;BME280;45960;53.630;55.972;2023-01-31T04:25:21;100617.16;;;-11.38;64.95
60087;BME280;45960;53.630;55.972;2023-01-31T04:26:23;100617.25;;;-11.35;65.08
60087;BME280;45960;53.630;55.972;2023-01-31T04:27:24;100617.34;;;-11.32;64.95
60087;BME280;45960;53.630;55.972;2023-01-31T04:28:26;100619.19;;;-11.28;64.99
60087;BME280;45960;53.630;55.972;2023-01-31T04:29:27;100611.44;;;-11.28;65.09
60087;BME280;45960;53.630;55.972;2023-01-31T04:30:28;100619.28;;;-11.25;64.91
60087;BME280;45960;53.630;55.972;2023-01-31T04:31:29;100618.44;;;-11.24;65.06
60087;BME280;45960;53.630;55.972;2023-01-31T04:32:30;100614.97;;;-11.24;64.77
60087;BME280;45960;53.630;55.972;2023-01-31T04:33:32;100616.63;;;-11.27;64.69
60087;BME280;45960;53.630;55.972;2023-01-31T04:34:33;100614.81;;;-11.31;65.08
60087;BME280;45960;53.630;55.972;2023-01-31T04:35:34;100614.84;;;-11.29;64.99
60087;BME280;45960;53.630;55.972;2023-01-31T04:36:35;100624.44;;;-11.25;64.83
60087;BME280;45960;53.630;55.972;2023-01-31T04:37:36;100626.09;;;-11.27;64.81
60087;BME280;45960;53.630;55.972;2023-01-31T04:38:37;100623.56;;;-11.25;64.76
60087;BME280;45960;53.630;55.972;2023-01-31T04:39:39;100628.50;;;-11.32;64.99
60087;BME280;45960;53.630;55.972;2023-01-31T04:40:40;100625.91;;;-11.33;65.04
60087;BME280;45960;53.630;55.972;2023-01-31T04:41:41;100621.69;;;-11.31;65.29
60087;BME280;45960;53.630;55.972;2023-01-31T04:42:42;100634.66;;;-11.28;65.22
60087;BME280;45960;53.630;55.972;2023-01-31T04:43:43;100631.31;;;-11.24;65.24
60087;BME280;45960;53.630;55.972;2023-01-31T04:44:44;100621.09;;;-11.21;65.13
60087;BME280;45960;53.630;55.972;2023-01-31T04:45:45;100625.69;;;-11.11;65.12
60087;BME280;45960;53.630;55.972;2023-01-31T04:46:46;100625.72;;;-11.09;64.91
60087;BME280;45960;53.630;55.972;2023-01-31T04:47:47;100619.75;;;-11.07;64.78
60087;BME280;45960;53.630;55.972;2023-01-31T04:48:48;100635.25;;;-11.07;64.73
60087;BME280;45960;53.630;55.972;2023-01-31T04:49:49;100623.19;;;-11.08;64.78
60087;BME280;45960;53.630;55.972;2023-01-31T04:50:50;100630.88;;;-11.09;64.54
60087;BME280;45960;53.630;55.972;2023-01-31T04:51:51;100630.84;;;-11.11;64.58
60087;BME280;45960;53.630;55.972;2023-01-31T04:52:52;100629.22;;;-11.07;64.54
60087;BME280;45960;53.630;55.972;2023-01-31T04:53:53;100624.91;;;-11.07;64.68
60087;BME280;45960;53.630;55.972;2023-01-31T04:54:54;100624.19;;;-11.02;64.64
60087;BME280;45960;53.630;55.972;2023-01-31T04:55:55;100628.59;;;-10.98;64.40
60087;BME280;45960;53.630;55.972;2023-01-31T04:56:56;100624.34;;;-10.96;64.51
60087;BME280;45960;53.630;55.972;2023-01-31T04:57:57;100625.28;;;-10.94;64.41
60087;BME280;45960;53.630;55.972;2023-01-31T04:58:58;100625.34;;;-10.91;64.06
60087;BME280;45960;53.630;55.972;2023-01-31T04:59:59;100617.44;;;-10.97;63.86
60087;BME280;45960;53.630;55.972;2023-01-31T05:01:00;100625.34;;;-10.91;63.96
60087;BME280;45960;53.630;55.972;2023-01-31T05:02:01;100625.34;;;-10.91;64.01
60087;BME280;45960;53.630;55.972;2023-01-31T05:03:02;100621.84;;;-10.93;63.99
60087;BME280;45960;53.630;55.972;2023-01-31T05:04:03;100616.69;;;-10.93;64.21
60087;BME280;45960;53.630;55.972;2023-01-31T05:05:05;100620.19;;;-10.91;64.03
60087;BME280;45960;53.630;55.972;2023-01-31T05:06:07;100632.41;;;-10.84;64.25
60087;BME280;45960;53.630;55.972;2023-01-31T05:07:08;100625.44;;;-10.88;63.99
60087;BME280;45960;53.630;55.972;2023-01-31T05:08:09;100628.94;;;-10.86;63.89
60087;BME280;45960;53.630;55.972;2023-01-31T05:09:10;100627.25;;;-10.84;64.03
60087;BME280;45960;53.630;55.972;2023-01-31T05:10:12;100623.94;;;-10.80;63.83
60087;BME280;45960;53.630;55.972;2023-01-31T05:11:13;100625.72;;;-10.77;63.74
60087;BME280;45960;53.630;55.972;2023-01-31T05:12:14;100626.63;;;-10.75;63.83
60087;BME280;45960;53.630;55.972;2023-01-31T05:13:15;100628.41;;;-10.73;64.06
60087;BME280;45960;53.630;55.972;2023-01-31T05:14:17;100623.50;;;-10.64;63.67
60087;BME280;45960;53.630;55.972;2023-01-31T05:15:22;100627.81;;;-10.63;63.77
60087;BME280;45960;53.630;55.972;2023-01-31T05:16:25;100629.75;;;-10.55;63.52
60087;BME280;45960;53.630;55.972;2023-01-31T05:17:37;100624.47;;;-10.59;63.60
60087;BME280;45960;53.630;55.972;2023-01-31T05:18:44;100634.91;;;-10.55;63.61
60087;BME280;45960;53.630;55.972;2023-01-31T05:19:49;100633.41;;;-10.47;63.69
60087;BME280;45960;53.630;55.972;2023-01-31T05:20:50;100633.47;;;-10.44;63.31
60087;BME280;45960;53.630;55.972;2023-01-31T05:21:52;100635.28;;;-10.40;63.50
60087;BME280;45960;53.630;55.972;2023-01-31T05:22:58;100636.22;;;-10.37;63.35
60087;BME280;45960;53.630;55.972;2023-01-31T05:24:03;100631.09;;;-10.35;63.43
60087;BME280;45960;53.630;55.972;2023-01-31T05:25:05;100632.97;;;-10.29;63.35
60087;BME280;45960;53.630;55.972;2023-01-31T05:26:06;100634.75;;;-10.25;63.25
60087;BME280;45960;53.630;55.972;2023-01-31T05:27:08;100631.41;;;-10.21;63.38
60087;BME280;45960;53.630;55.972;2023-01-31T05:28:10;100630.69;;;-10.16;63.06
60087;BME280;45960;53.630;55.972;2023-01-31T05:29:12;100632.41;;;-10.15;62.88
60087;BME280;45960;53.630;55.972;2023-01-31T05:30:13;100624.66;;;-10.15;62.95
60087;BME280;45960;53.630;55.972;2023-01-31T05:31:16;100628.13;;;-10.14;63.08
60087;BME280;45960;53.630;55.972;2023-01-31T05:32:18;100628.38;;;-10.03;63.03
60087;BME280;45960;53.630;55.972;2023-01-31T05:33:20;100621.56;;;-10.00;62.93
60087;BME280;45960;53.630;55.972;2023-01-31T05:34:22;100626.91;;;-9.94;62.52
60087;BME280;45960;53.630;55.972;2023-01-31T05:35:26;100622.53;;;-9.96;62.58
60087;BME280;45960;53.630;55.972;2023-01-31T05:36:27;100624.25;;;-9.95;62.83
60087;BME280;45960;53.630;55.972;2023-01-31T05:37:29;100623.41;;;-9.94;62.78
60087;BME280;45960;53.630;55.972;2023-01-31T05:38:31;100620.13;;;-9.88;62.80
60087;BME280;45960;53.630;55.972;2023-01-31T05:39:32;100621.19;;;-9.79;62.70
60087;BME280;45960;53.630;55.972;2023-01-31T05:40:33;100629.06;;;-9.74;62.56
60087;BME280;45960;53.630;55.972;2023-01-31T05:41:35;100627.44;;;-9.69;62.54
60087;BME280;45960;53.630;55.972;2023-01-31T05:42:36;100631.03;;;-9.62;62.64
60087;BME280;45960;53.630;55.972;2023-01-31T05:43:37;100626.88;;;-9.56;62.40
60087;BME280;45960;53.630;55.972;2023-01-31T05:44:38;100626.22;;;-9.46;62.39
60087;BME280;45960;53.630;55.972;2023-01-31T05:45:39;100627.16;;;-9.42;62.04
60087;BME280;45960;53.630;55.972;2023-01-31T05:46:41;100630.53;;;-9.46;62.01
60087;BME280;45960;53.630;55.972;2023-01-31T05:47:45;100628.84;;;-9.44;62.01
60087;BME280;45960;53.630;55.972;2023-01-31T05:48:46;100615.81;;;-9.49;61.91
60087;BME280;45960;53.630;55.972;2023-01-31T05:49:47;100634.16;;;-9.38;61.69
60087;BME280;45960;53.630;55.972;2023-01-31T05:50:48;100627.03;;;-9.48;61.89
60087;BME280;45960;53.630;55.972;2023-01-31T05:51:50;100640.16;;;-9.40;62.09
60087;BME280;45960;53.630;55.972;2023-01-31T05:52:53;100635.09;;;-9.34;61.97
60087;BME280;45960;53.630;55.972;2023-01-31T05:53:55;100637.69;;;-9.33;61.69
60087;BME280;45960;53.630;55.972;2023-01-31T05:54:56;100625.72;;;-9.28;61.76
60087;BME280;45960;53.630;55.972;2023-01-31T05:55:57;100634.47;;;-9.23;61.76
60087;BME280;45960;53.630;55.972;2023-01-31T05:56:58;100625.84;;;-9.21;61.75
60087;BME280;45960;53.630;55.972;2023-01-31T05:57:59;100629.47;;;-9.13;61.66
60087;BME280;45960;53.630;55.972;2023-01-31T05:59:00;100632.13;;;-9.10;61.30
60087;BME280;45960;53.630;55.972;2023-01-31T06:00:03;100622.66;;;-9.08;60.98
60087;BME280;45960;53.630;55.972;2023-01-31T06:01:12;100622.44;;;-9.20;60.99
60087;BME280;45960;53.630;55.972;2023-01-31T06:02:13;100635.44;;;-9.16;61.04